sensor_id;sensor_type;location;lat;lon;timestamp;temperature;humidity
21425;DHT22;10873;51.132;16.848;2023-03-12T00:00:58;23.40;42.80
21425;DHT22;10873;51.132;16.848;2023-03-12T00:03:33;23.40;42.80
21425;DHT22;10873;51.132;16.848;2023-03-12T00:06:01;23.40;42.80
21425;DHT22;10873;51.132;16.848;2023-03-12T00:08:27;23.40;42.80
21425;DHT22;10873;51.132;16.848;2023-03-12T00:10:53;23.40;42.80
21425;DHT22;10873;51.132;16.848;2023-03-12T00:13:19;23.40;42.80
21425;DHT22;10873;51.132;16.848;2023-03-12T00:15:45;23.40;42.80
21425;DHT22;10873;51.132;16.848;2023-03-12T00:18:11;23.40;42.80
21425;DHT22;10873;51.132;16.848;2023-03-12T00:20:37;23.40;42.70
21425;DHT22;10873;51.132;16.848;2023-03-12T00:23:05;23.40;42.70
21425;DHT22;10873;51.132;16.848;2023-03-12T00:25:31;23.40;42.70
21425;DHT22;10873;51.132;16.848;2023-03-12T00:27:57;23.40;42.70
21425;DHT22;10873;51.132;16.848;2023-03-12T00:30:23;23.40;42.70
21425;DHT22;10873;51.132;16.848;2023-03-12T00:32:49;23.40;42.60
21425;DHT22;10873;51.132;16.848;2023-03-12T00:35:15;23.40;42.50
21425;DHT22;10873;51.132;16.848;2023-03-12T00:37:41;23.40;42.50
21425;DHT22;10873;51.132;16.848;2023-03-12T00:40:10;23.40;42.50
21425;DHT22;10873;51.132;16.848;2023-03-12T00:42:37;23.40;42.50
21425;DHT22;10873;51.132;16.848;2023-03-12T00:45:04;23.50;42.60
21425;DHT22;10873;51.132;16.848;2023-03-12T00:47:30;23.40;42.50
21425;DHT22;10873;51.132;16.848;2023-03-12T00:49:56;23.40;42.50
21425;DHT22;10873;51.132;16.848;2023-03-12T00:52:22;23.40;42.40
21425;DHT22;10873;51.132;16.848;2023-03-12T00:54:48;23.40;42.30
21425;DHT22;10873;51.132;16.848;2023-03-12T00:57:16;23.40;42.30
21425;DHT22;10873;51.132;16.848;2023-03-12T00:59:42;23.40;42.30
21425;DHT22;10873;51.132;16.848;2023-03-12T01:02:08;23.40;42.20
21425;DHT22;10873;51.132;16.848;2023-03-12T01:04:34;23.40;42.30
21425;DHT22;10873;51.132;16.848;2023-03-12T01:07:00;23.40;42.20
21425;DHT22;10873;51.132;16.848;2023-03-12T01:09:26;23.40;42.20
21425;DHT22;10873;51.132;16.848;2023-03-12T01:11:52;23.40;42.20
21425;DHT22;10873;51.132;16.848;2023-03-12T01:14:20;23.40;42.20
21425;DHT22;10873;51.132;16.848;2023-03-12T01:16:45;23.40;42.20
21425;DHT22;10873;51.132;16.848;2023-03-12T01:19:12;23.40;42.20
21425;DHT22;10873;51.132;16.848;2023-03-12T01:21:37;23.50;42.30
21425;DHT22;10873;51.132;16.848;2023-03-12T01:24:04;23.40;42.20
21425;DHT22;10873;51.132;16.848;2023-03-12T01:26:30;23.50;42.20
21425;DHT22;10873;51.132;16.848;2023-03-12T01:28:56;23.50;42.10
21425;DHT22;10873;51.132;16.848;2023-03-12T01:31:24;23.50;42.10
21425;DHT22;10873;51.132;16.848;2023-03-12T01:33:52;23.50;42.10
21425;DHT22;10873;51.132;16.848;2023-03-12T01:36:20;23.50;42.00
21425;DHT22;10873;51.132;16.848;2023-03-12T01:38:46;23.50;42.00
21425;DHT22;10873;51.132;16.848;2023-03-12T01:41:12;23.50;42.00
21425;DHT22;10873;51.132;16.848;2023-03-12T01:43:39;23.40;42.00
21425;DHT22;10873;51.132;16.848;2023-03-12T01:49:04;23.50;42.00
21425;DHT22;10873;51.132;16.848;2023-03-12T01:51:35;23.50;42.00
21425;DHT22;10873;51.132;16.848;2023-03-12T01:54:09;23.50;42.00
21425;DHT22;10873;51.132;16.848;2023-03-12T01:56:38;23.50;42.00
21425;DHT22;10873;51.132;16.848;2023-03-12T01:59:09;23.50;42.00
21425;DHT22;10873;51.132;16.848;2023-03-12T02:01:36;23.50;41.90
21425;DHT22;10873;51.132;16.848;2023-03-12T02:04:04;23.50;41.90
21425;DHT22;10873;51.132;16.848;2023-03-12T02:06:35;23.50;41.90
21425;DHT22;10873;51.132;16.848;2023-03-12T02:09:04;23.50;41.80
21425;DHT22;10873;51.132;16.848;2023-03-12T02:11:30;23.50;41.90
21425;DHT22;10873;51.132;16.848;2023-03-12T02:13:57;23.50;41.90
21425;DHT22;10873;51.132;16.848;2023-03-12T02:16:23;23.50;41.90
21425;DHT22;10873;51.132;16.848;2023-03-12T02:18:52;23.50;41.80
21425;DHT22;10873;51.132;16.848;2023-03-12T02:21:23;23.50;41.80
21425;DHT22;10873;51.132;16.848;2023-03-12T02:23:55;23.50;42.50
21425;DHT22;10873;51.132;16.848;2023-03-12T02:26:28;23.50;41.80
21425;DHT22;10873;51.132;16.848;2023-03-12T02:28:55;23.50;41.80
21425;DHT22;10873;51.132;16.848;2023-03-12T02:31:25;23.50;41.80
21425;DHT22;10873;51.132;16.848;2023-03-12T02:33:52;23.50;41.80
21425;DHT22;10873;51.132;16.848;2023-03-12T02:36:20;23.50;41.70
21425;DHT22;10873;51.132;16.848;2023-03-12T02:38:48;23.50;41.70
21425;DHT22;10873;51.132;16.848;2023-03-12T02:41:18;23.50;41.70
21425;DHT22;10873;51.132;16.848;2023-03-12T02:43:48;23.50;41.70
21425;DHT22;10873;51.132;16.848;2023-03-12T02:46:14;23.50;41.70
21425;DHT22;10873;51.132;16.848;2023-03-12T02:48:41;23.50;41.70
21425;DHT22;10873;51.132;16.848;2023-03-12T02:51:07;23.50;41.80
21425;DHT22;10873;51.132;16.848;2023-03-12T02:53:33;23.50;41.70
21425;DHT22;10873;51.132;16.848;2023-03-12T02:55:59;23.50;41.70
21425;DHT22;10873;51.132;16.848;2023-03-12T02:58:25;23.50;41.60
21425;DHT22;10873;51.132;16.848;2023-03-12T03:00:53;23.50;41.60
21425;DHT22;10873;51.132;16.848;2023-03-12T03:03:19;23.50;41.60
21425;DHT22;10873;51.132;16.848;2023-03-12T03:05:45;23.50;41.50
21425;DHT22;10873;51.132;16.848;2023-03-12T03:08:11;23.50;41.50
21425;DHT22;10873;51.132;16.848;2023-03-12T03:10:37;23.50;42.20
21425;DHT22;10873;51.132;16.848;2023-03-12T03:13:03;23.50;41.50
21425;DHT22;10873;51.132;16.848;2023-03-12T03:15:29;23.50;41.50
21425;DHT22;10873;51.132;16.848;2023-03-12T03:17:57;23.50;41.60
21425;DHT22;10873;51.132;16.848;2023-03-12T03:20:23;23.50;41.60
21425;DHT22;10873;51.132;16.848;2023-03-12T03:22:50;23.50;41.50
21425;DHT22;10873;51.132;16.848;2023-03-12T03:25:16;23.50;41.50
21425;DHT22;10873;51.132;16.848;2023-03-12T03:27:47;23.50;41.50
21425;DHT22;10873;51.132;16.848;2023-03-12T03:30:13;23.50;41.50
21425;DHT22;10873;51.132;16.848;2023-03-12T03:32:40;23.50;41.40
21425;DHT22;10873;51.132;16.848;2023-03-12T03:35:08;23.50;41.40
21425;DHT22;10873;51.132;16.848;2023-03-12T03:37:35;23.50;41.40
21425;DHT22;10873;51.132;16.848;2023-03-12T03:40:00;23.50;41.40
21425;DHT22;10873;51.132;16.848;2023-03-12T03:42:27;23.50;41.40
21425;DHT22;10873;51.132;16.848;2023-03-12T03:44:53;23.50;41.40
21425;DHT22;10873;51.132;16.848;2023-03-12T03:47:20;23.50;41.50
21425;DHT22;10873;51.132;16.848;2023-03-12T03:49:46;23.50;41.50
21425;DHT22;10873;51.132;16.848;2023-03-12T03:52:14;23.50;41.50
21425;DHT22;10873;51.132;16.848;2023-03-12T04:10:14;23.60;41.30
21425;DHT22;10873;51.132;16.848;2023-03-12T04:12:40;23.50;41.20
21425;DHT22;10873;51.132;16.848;2023-03-12T04:15:07;23.50;41.30
21425;DHT22;10873;51.132;16.848;2023-03-12T04:17:33;23.50;41.20
21425;DHT22;10873;51.132;16.848;2023-03-12T04:19:59;23.60;41.30
21425;DHT22;10873;51.132;16.848;2023-03-12T04:22:25;23.60;41.40
21425;DHT22;10873;51.132;16.848;2023-03-12T04:24:51;23.60;41.30
21425;DHT22;10873;51.132;16.848;2023-03-12T04:27:18;23.60;41.30
21425;DHT22;10873;51.132;16.848;2023-03-12T04:29:44;23.60;41.30
21425;DHT22;10873;51.132;16.848;2023-03-12T04:32:11;23.60;41.30
21425;DHT22;10873;51.132;16.848;2023-03-12T04:34:36;23.50;41.20
21425;DHT22;10873;51.132;16.848;2023-03-12T04:37:03;23.60;41.20
21425;DHT22;10873;51.132;16.848;2023-03-12T04:39:29;23.60;41.20
21425;DHT22;10873;51.132;16.848;2023-03-12T04:41:55;23.60;41.20
21425;DHT22;10873;51.132;16.848;2023-03-12T04:44:22;23.50;41.10
21425;DHT22;10873;51.132;16.848;2023-03-12T04:46:48;23.50;41.20
21425;DHT22;10873;51.132;16.848;2023-03-12T04:49:14;23.50;41.30
21425;DHT22;10873;51.132;16.848;2023-03-12T04:51:40;23.50;41.30
21425;DHT22;10873;51.132;16.848;2023-03-12T04:54:06;23.60;41.30
21425;DHT22;10873;51.132;16.848;2023-03-12T04:56:32;23.60;41.30
21425;DHT22;10873;51.132;16.848;2023-03-12T04:58:58;23.60;41.20
21425;DHT22;10873;51.132;16.848;2023-03-12T05:01:27;23.60;41.20
21425;DHT22;10873;51.132;16.848;2023-03-12T05:03:54;23.60;41.20
21425;DHT22;10873;51.132;16.848;2023-03-12T05:06:21;23.60;41.10
21425;DHT22;10873;51.132;16.848;2023-03-12T05:08:47;23.60;41.20
21425;DHT22;10873;51.132;16.848;2023-03-12T05:11:13;23.60;41.20
21425;DHT22;10873;51.132;16.848;2023-03-12T05:13:40;23.60;41.20
21425;DHT22;10873;51.132;16.848;2023-03-12T05:16:07;23.60;41.20
21425;DHT22;10873;51.132;16.848;2023-03-12T05:18:34;23.60;41.20
21425;DHT22;10873;51.132;16.848;2023-03-12T05:21:02;23.60;41.20
21425;DHT22;10873;51.132;16.848;2023-03-12T05:23:28;23.60;41.20
21425;DHT22;10873;51.132;16.848;2023-03-12T05:25:55;23.60;41.10
21425;DHT22;10873;51.132;16.848;2023-03-12T05:28:21;23.60;41.20
21425;DHT22;10873;51.132;16.848;2023-03-12T05:30:53;23.60;41.10
21425;DHT22;10873;51.132;16.848;2023-03-12T05:33:19;23.60;41.10
21425;DHT22;10873;51.132;16.848;2023-03-12T05:35:46;23.60;41.00
21425;DHT22;10873;51.132;16.848;2023-03-12T05:38:12;23.60;41.80
21425;DHT22;10873;51.132;16.848;2023-03-12T05:40:38;23.60;41.10
21425;DHT22;10873;51.132;16.848;2023-03-12T05:43:04;23.60;41.10
21425;DHT22;10873;51.132;16.848;2023-03-12T05:45:32;23.60;41.10
21425;DHT22;10873;51.132;16.848;2023-03-12T05:47:58;23.60;41.10
21425;DHT22;10873;51.132;16.848;2023-03-12T05:50:26;23.60;41.10
21425;DHT22;10873;51.132;16.848;2023-03-12T05:52:53;23.60;41.10
21425;DHT22;10873;51.132;16.848;2023-03-12T05:55:19;23.60;41.10
21425;DHT22;10873;51.132;16.848;2023-03-12T05:57:45;23.60;41.00
21425;DHT22;10873;51.132;16.848;2023-03-12T06:00:13;23.60;41.00
21425;DHT22;10873;51.132;16.848;2023-03-12T06:02:40;23.60;41.00
21425;DHT22;10873;51.132;16.848;2023-03-12T06:05:08;23.60;41.00
21425;DHT22;10873;51.132;16.848;2023-03-12T06:07:34;23.60;41.10
21425;DHT22;10873;51.132;16.848;2023-03-12T06:10:01;23.50;41.10
21425;DHT22;10873;51.132;16.848;2023-03-12T06:12:27;23.50;41.10
21425;DHT22;10873;51.132;16.848;2023-03-12T06:14:53;23.50;41.20
21425;DHT22;10873;51.132;16.848;2023-03-12T06:17:19;23.60;41.40
21425;DHT22;10873;51.132;16.848;2023-03-12T06:19:49;23.50;41.40
21425;DHT22;10873;51.132;16.848;2023-03-12T06:22:15;23.60;41.50
21425;DHT22;10873;51.132;16.848;2023-03-12T06:24:41;23.60;41.50
21425;DHT22;10873;51.132;16.848;2023-03-12T06:27:09;23.60;41.50
21425;DHT22;10873;51.132;16.848;2023-03-12T06:29:35;23.60;41.40
21425;DHT22;10873;51.132;16.848;2023-03-12T06:32:01;23.60;41.40
21425;DHT22;10873;51.132;16.848;2023-03-12T06:34:27;23.60;41.30
21425;DHT22;10873;51.132;16.848;2023-03-12T06:36:53;23.60;41.30
21425;DHT22;10873;51.132;16.848;2023-03-12T06:39:20;23.60;41.30
21425;DHT22;10873;51.132;16.848;2023-03-12T06:41:45;23.60;41.30
21425;DHT22;10873;51.132;16.848;2023-03-12T06:44:13;23.60;41.50
21425;DHT22;10873;51.132;16.848;2023-03-12T06:46:39;23.60;41.50
21425;DHT22;10873;51.132;16.848;2023-03-12T06:49:06;23.60;41.50
21425;DHT22;10873;51.132;16.848;2023-03-12T06:51:32;23.60;41.50
21425;DHT22;10873;51.132;16.848;2023-03-12T06:53:58;23.60;41.60
21425;DHT22;10873;51.132;16.848;2023-03-12T06:56:29;23.60;41.70
21425;DHT22;10873;51.132;16.848;2023-03-12T06:58:56;23.60;41.80
21425;DHT22;10873;51.132;16.848;2023-03-12T07:01:23;23.70;41.90
21425;DHT22;10873;51.132;16.848;2023-03-12T07:03:49;23.70;42.00
21425;DHT22;10873;51.132;16.848;2023-03-12T07:06:16;23.70;41.90
21425;DHT22;10873;51.132;16.848;2023-03-12T07:08:43;23.70;41.90
21425;DHT22;10873;51.132;16.848;2023-03-12T07:11:09;23.70;41.90
21425;DHT22;10873;51.132;16.848;2023-03-12T07:13:36;23.70;41.80
21425;DHT22;10873;51.132;16.848;2023-03-12T07:16:02;23.70;41.80
21425;DHT22;10873;51.132;16.848;2023-03-12T07:18:33;23.70;41.90
21425;DHT22;10873;51.132;16.848;2023-03-12T07:21:01;23.70;42.00
21425;DHT22;10873;51.132;16.848;2023-03-12T07:23:29;23.70;42.00
21425;DHT22;10873;51.132;16.848;2023-03-12T07:25:55;23.70;42.00
21425;DHT22;10873;51.132;16.848;2023-03-12T07:28:22;23.70;42.00
21425;DHT22;10873;51.132;16.848;2023-03-12T07:30:48;23.70;42.00
21425;DHT22;10873;51.132;16.848;2023-03-12T07:33:16;23.80;42.10
21425;DHT22;10873;51.132;16.848;2023-03-12T07:35:44;23.70;42.10
21425;DHT22;10873;51.132;16.848;2023-03-12T07:38:11;23.70;42.00
21425;DHT22;10873;51.132;16.848;2023-03-12T07:40:37;23.70;42.00
21425;DHT22;10873;51.132;16.848;2023-03-12T07:43:04;23.70;42.00
21425;DHT22;10873;51.132;16.848;2023-03-12T07:45:35;23.70;42.20
21425;DHT22;10873;51.132;16.848;2023-03-12T07:48:02;23.70;42.10
21425;DHT22;10873;51.132;16.848;2023-03-12T07:50:28;23.70;42.20
21425;DHT22;10873;51.132;16.848;2023-03-12T07:52:56;23.80;42.40
21425;DHT22;10873;51.132;16.848;2023-03-12T07:55:21;23.70;44.00
21425;DHT22;10873;51.132;16.848;2023-03-12T07:57:48;23.80;44.40
21425;DHT22;10873;51.132;16.848;2023-03-12T08:00:14;23.70;44.20
21425;DHT22;10873;51.132;16.848;2023-03-12T08:02:42;23.70;44.10
21425;DHT22;10873;51.132;16.848;2023-03-12T08:05:08;23.70;44.00
21425;DHT22;10873;51.132;16.848;2023-03-12T08:07:35;23.70;43.90
21425;DHT22;10873;51.132;16.848;2023-03-12T08:10:05;23.70;44.00
21425;DHT22;10873;51.132;16.848;2023-03-12T08:12:32;23.80;43.70
21425;DHT22;10873;51.132;16.848;2023-03-12T08:14:58;23.70;43.90
21425;DHT22;10873;51.132;16.848;2023-03-12T08:17:24;23.70;44.00
21425;DHT22;10873;51.132;16.848;2023-03-12T08:19:50;23.70;44.00
21425;DHT22;10873;51.132;16.848;2023-03-12T08:22:17;23.70;44.20
21425;DHT22;10873;51.132;16.848;2023-03-12T08:24:43;23.70;44.20
21425;DHT22;10873;51.132;16.848;2023-03-12T08:27:10;23.70;44.20
21425;DHT22;10873;51.132;16.848;2023-03-12T08:29:39;23.70;44.40
21425;DHT22;10873;51.132;16.848;2023-03-12T08:32:06;23.70;44.40
21425;DHT22;10873;51.132;16.848;2023-03-12T08:34:33;23.70;44.40
21425;DHT22;10873;51.132;16.848;2023-03-12T08:36:59;23.70;44.40
21425;DHT22;10873;51.132;16.848;2023-03-12T08:39:25;23.70;44.50
21425;DHT22;10873;51.132;16.848;2023-03-12T08:41:52;23.60;44.50
21425;DHT22;10873;51.132;16.848;2023-03-12T08:44:21;23.70;44.60
21425;DHT22;10873;51.132;16.848;2023-03-12T08:46:48;23.70;44.60
21425;DHT22;10873;51.132;16.848;2023-03-12T08:49:14;23.70;44.50
21425;DHT22;10873;51.132;16.848;2023-03-12T08:51:40;23.70;45.30
21425;DHT22;10873;51.132;16.848;2023-03-12T08:54:06;23.70;45.50
21425;DHT22;10873;51.132;16.848;2023-03-12T08:56:34;23.70;45.40
21425;DHT22;10873;51.132;16.848;2023-03-12T08:59:01;23.70;45.10
21425;DHT22;10873;51.132;16.848;2023-03-12T09:01:29;23.70;44.70
21425;DHT22;10873;51.132;16.848;2023-03-12T09:03:55;23.70;44.30
21425;DHT22;10873;51.132;16.848;2023-03-12T09:06:21;23.70;44.10
21425;DHT22;10873;51.132;16.848;2023-03-12T09:08:47;23.70;44.00
21425;DHT22;10873;51.132;16.848;2023-03-12T09:11:16;23.70;43.90
21425;DHT22;10873;51.132;16.848;2023-03-12T09:13:42;23.70;43.80
21425;DHT22;10873;51.132;16.848;2023-03-12T09:16:09;23.80;43.90
21425;DHT22;10873;51.132;16.848;2023-03-12T09:18:36;23.80;43.80
21425;DHT22;10873;51.132;16.848;2023-03-12T09:21:03;23.80;43.90
21425;DHT22;10873;51.132;16.848;2023-03-12T09:23:29;23.80;43.70
21425;DHT22;10873;51.132;16.848;2023-03-12T09:25:55;23.90;43.70
21425;DHT22;10873;51.132;16.848;2023-03-12T09:28:22;23.80;43.50
21425;DHT22;10873;51.132;16.848;2023-03-12T09:30:48;23.80;43.50
21425;DHT22;10873;51.132;16.848;2023-03-12T09:33:14;23.90;43.40
21425;DHT22;10873;51.132;16.848;2023-03-12T09:35:42;23.90;43.30
21425;DHT22;10873;51.132;16.848;2023-03-12T09:38:12;23.90;43.20
21425;DHT22;10873;51.132;16.848;2023-03-12T09:40:38;23.90;43.10
21425;DHT22;10873;51.132;16.848;2023-03-12T09:43:12;23.90;43.00
21425;DHT22;10873;51.132;16.848;2023-03-12T09:45:44;23.90;42.90
21425;DHT22;10873;51.132;16.848;2023-03-12T09:48:14;23.90;42.70
21425;DHT22;10873;51.132;16.848;2023-03-12T09:50:46;23.90;42.60
21425;DHT22;10873;51.132;16.848;2023-03-12T09:53:21;23.90;42.50
21425;DHT22;10873;51.132;16.848;2023-03-12T09:55:52;23.80;42.40
21425;DHT22;10873;51.132;16.848;2023-03-12T09:58:25;23.90;42.40
21425;DHT22;10873;51.132;16.848;2023-03-12T10:00:56;23.80;42.20
21425;DHT22;10873;51.132;16.848;2023-03-12T10:03:35;23.80;42.20
21425;DHT22;10873;51.132;16.848;2023-03-12T10:06:10;23.90;42.20
21425;DHT22;10873;51.132;16.848;2023-03-12T10:08:47;23.80;42.20
21425;DHT22;10873;51.132;16.848;2023-03-12T10:11:27;23.90;42.10
21425;DHT22;10873;51.132;16.848;2023-03-12T10:14:05;23.80;42.10
21425;DHT22;10873;51.132;16.848;2023-03-12T10:16:43;23.80;42.10
21425;DHT22;10873;51.132;16.848;2023-03-12T10:19:23;23.80;42.10
21425;DHT22;10873;51.132;16.848;2023-03-12T10:21:56;23.80;42.00
21425;DHT22;10873;51.132;16.848;2023-03-12T10:24:32;23.80;42.10
21425;DHT22;10873;51.132;16.848;2023-03-12T10:27:10;23.80;42.60
21425;DHT22;10873;51.132;16.848;2023-03-12T10:29:40;23.80;42.20
21425;DHT22;10873;51.132;16.848;2023-03-12T10:32:12;23.80;43.00
21425;DHT22;10873;51.132;16.848;2023-03-12T10:34:44;23.80;42.30
21425;DHT22;10873;51.132;16.848;2023-03-12T10:37:16;23.80;42.30
21425;DHT22;10873;51.132;16.848;2023-03-12T10:39:42;23.70;42.20
21425;DHT22;10873;51.132;16.848;2023-03-12T10:42:13;23.80;42.30
21425;DHT22;10873;51.132;16.848;2023-03-12T10:44:40;23.70;42.20
21425;DHT22;10873;51.132;16.848;2023-03-12T10:47:20;23.70;42.20
21425;DHT22;10873;51.132;16.848;2023-03-12T10:49:48;23.70;42.20
21425;DHT22;10873;51.132;16.848;2023-03-12T10:52:18;23.70;42.20
21425;DHT22;10873;51.132;16.848;2023-03-12T10:54:46;23.70;42.20
21425;DHT22;10873;51.132;16.848;2023-03-12T10:57:14;23.70;42.10
21425;DHT22;10873;51.132;16.848;2023-03-12T10:59:42;23.70;42.10
21425;DHT22;10873;51.132;16.848;2023-03-12T11:02:33;23.70;42.20
21425;DHT22;10873;51.132;16.848;2023-03-12T11:05:00;23.70;42.10
21425;DHT22;10873;51.132;16.848;2023-03-12T11:07:29;23.70;42.10
21425;DHT22;10873;51.132;16.848;2023-03-12T11:10:11;23.70;42.20
21425;DHT22;10873;51.132;16.848;2023-03-12T11:12:39;23.70;43.30
21425;DHT22;10873;51.132;16.848;2023-03-12T11:15:18;23.70;43.90
21425;DHT22;10873;51.132;16.848;2023-03-12T11:17:45;23.70;44.40
21425;DHT22;10873;51.132;16.848;2023-03-12T11:20:24;23.80;44.80
21425;DHT22;10873;51.132;16.848;2023-03-12T11:22:52;23.80;45.00
21425;DHT22;10873;51.132;16.848;2023-03-12T11:25:23;23.90;45.30
21425;DHT22;10873;51.132;16.848;2023-03-12T11:27:52;23.90;45.90
21425;DHT22;10873;51.132;16.848;2023-03-12T11:30:22;24.00;46.30
21425;DHT22;10873;51.132;16.848;2023-03-12T11:32:50;24.00;47.20
21425;DHT22;10873;51.132;16.848;2023-03-12T11:35:18;24.00;48.10
21425;DHT22;10873;51.132;16.848;2023-03-12T11:37:56;24.10;50.80
21425;DHT22;10873;51.132;16.848;2023-03-12T11:40:32;24.30;53.40
21425;DHT22;10873;51.132;16.848;2023-03-12T11:43:22;24.50;54.40
21425;DHT22;10873;51.132;16.848;2023-03-12T11:46:08;24.80;55.00
21425;DHT22;10873;51.132;16.848;2023-03-12T11:48:44;25.20;55.10
21425;DHT22;10873;51.132;16.848;2023-03-12T11:51:21;25.60;55.20
21425;DHT22;10873;51.132;16.848;2023-03-12T11:54:05;26.10;54.70
21425;DHT22;10873;51.132;16.848;2023-03-12T11:56:37;26.60;54.40
21425;DHT22;10873;51.132;16.848;2023-03-12T11:59:22;27.00;53.90
21425;DHT22;10873;51.132;16.848;2023-03-12T12:01:57;27.50;53.30
21425;DHT22;10873;51.132;16.848;2023-03-12T12:07:43;28.30;52.20
21425;DHT22;10873;51.132;16.848;2023-03-12T12:10:23;28.70;51.80
21425;DHT22;10873;51.132;16.848;2023-03-12T12:12:57;29.00;51.40
21425;DHT22;10873;51.132;16.848;2023-03-12T12:15:32;29.30;51.10
21425;DHT22;10873;51.132;16.848;2023-03-12T12:18:08;29.60;50.50
21425;DHT22;10873;51.132;16.848;2023-03-12T12:20:44;29.80;50.10
21425;DHT22;10873;51.132;16.848;2023-03-12T12:23:17;30.10;49.70
21425;DHT22;10873;51.132;16.848;2023-03-12T12:26:05;30.30;49.40
21425;DHT22;10873;51.132;16.848;2023-03-12T12:31:42;30.60;48.20
21425;DHT22;10873;51.132;16.848;2023-03-12T12:37:28;31.00;47.10
21425;DHT22;10873;51.132;16.848;2023-03-12T12:40:02;31.10;46.70
21425;DHT22;10873;51.132;16.848;2023-03-12T12:42:43;31.30;46.30
21425;DHT22;10873;51.132;16.848;2023-03-12T12:45:12;31.40;46.10
21425;DHT22;10873;51.132;16.848;2023-03-12T12:47:43;31.50;45.80
21425;DHT22;10873;51.132;16.848;2023-03-12T12:50:15;31.60;45.70
21425;DHT22;10873;51.132;16.848;2023-03-12T12:52:42;31.70;45.60
21425;DHT22;10873;51.132;16.848;2023-03-12T12:55:14;31.90;45.90
21425;DHT22;10873;51.132;16.848;2023-03-12T12:57:44;31.90;45.40
21425;DHT22;10873;51.132;16.848;2023-03-12T13:00:22;32.00;47.70
21425;DHT22;10873;51.132;16.848;2023-03-12T13:02:52;31.70;47.80
21425;DHT22;10873;51.132;16.848;2023-03-12T13:05:25;31.40;48.10
21425;DHT22;10873;51.132;16.848;2023-03-12T13:07:51;31.00;48.00
21425;DHT22;10873;51.132;16.848;2023-03-12T13:10:37;30.80;48.00
21425;DHT22;10873;51.132;16.848;2023-03-12T13:13:09;30.50;47.70
21425;DHT22;10873;51.132;16.848;2023-03-12T13:15:37;30.30;46.30
21425;DHT22;10873;51.132;16.848;2023-03-12T13:18:19;30.00;45.30
21425;DHT22;10873;51.132;16.848;2023-03-12T13:21:05;29.80;44.80
21425;DHT22;10873;51.132;16.848;2023-03-12T13:23:40;29.60;44.50
21425;DHT22;10873;51.132;16.848;2023-03-12T13:26:19;29.40;43.90
21425;DHT22;10873;51.132;16.848;2023-03-12T13:29:11;29.20;43.00
21425;DHT22;10873;51.132;16.848;2023-03-12T13:31:40;29.00;44.80
21425;DHT22;10873;51.132;16.848;2023-03-12T13:34:29;28.80;45.70
21425;DHT22;10873;51.132;16.848;2023-03-12T13:36:57;28.70;46.80
21425;DHT22;10873;51.132;16.848;2023-03-12T13:39:29;28.70;47.10
21425;DHT22;10873;51.132;16.848;2023-03-12T13:41:57;28.80;48.00
21425;DHT22;10873;51.132;16.848;2023-03-12T13:44:37;29.10;48.40
21425;DHT22;10873;51.132;16.848;2023-03-12T13:47:05;29.40;49.00
21425;DHT22;10873;51.132;16.848;2023-03-12T13:49:43;29.70;49.40
21425;DHT22;10873;51.132;16.848;2023-03-12T13:52:21;30.00;49.50
21425;DHT22;10873;51.132;16.848;2023-03-12T13:54:57;30.40;50.00
21425;DHT22;10873;51.132;16.848;2023-03-12T13:57:29;30.60;50.10
21425;DHT22;10873;51.132;16.848;2023-03-12T14:00:03;30.90;50.20
21425;DHT22;10873;51.132;16.848;2023-03-12T14:02:33;31.20;50.10
21425;DHT22;10873;51.132;16.848;2023-03-12T14:05:02;31.40;51.10
21425;DHT22;10873;51.132;16.848;2023-03-12T14:07:45;31.40;53.00
21425;DHT22;10873;51.132;16.848;2023-03-12T14:10:21;31.30;53.10
21425;DHT22;10873;51.132;16.848;2023-03-12T14:13:00;31.20;51.00
21425;DHT22;10873;51.132;16.848;2023-03-12T14:15:36;31.30;50.70
21425;DHT22;10873;51.132;16.848;2023-03-12T14:18:12;31.50;50.10
21425;DHT22;10873;51.132;16.848;2023-03-12T14:20:40;31.70;49.50
21425;DHT22;10873;51.132;16.848;2023-03-12T14:23:08;31.80;48.80
21425;DHT22;10873;51.132;16.848;2023-03-12T14:25:39;32.00;48.00
21425;DHT22;10873;51.132;16.848;2023-03-12T14:28:11;32.20;47.80
21425;DHT22;10873;51.132;16.848;2023-03-12T14:30:47;32.30;47.00
21425;DHT22;10873;51.132;16.848;2023-03-12T14:33:15;32.50;46.50
21425;DHT22;10873;51.132;16.848;2023-03-12T14:35:44;32.60;46.00
21425;DHT22;10873;51.132;16.848;2023-03-12T14:38:15;32.70;45.70
21425;DHT22;10873;51.132;16.848;2023-03-12T14:40:44;32.90;45.30
21425;DHT22;10873;51.132;16.848;2023-03-12T14:43:25;33.00;45.20
21425;DHT22;10873;51.132;16.848;2023-03-12T14:45:58;33.10;45.00
21425;DHT22;10873;51.132;16.848;2023-03-12T14:48:27;33.20;47.40
21425;DHT22;10873;51.132;16.848;2023-03-12T14:50:55;33.10;47.30
21425;DHT22;10873;51.132;16.848;2023-03-12T14:53:24;32.80;46.70
21425;DHT22;10873;51.132;16.848;2023-03-12T14:56:02;32.70;45.60
21425;DHT22;10873;51.132;16.848;2023-03-12T14:58:28;32.70;47.00
21425;DHT22;10873;51.132;16.848;2023-03-12T15:00:58;32.40;46.40
21425;DHT22;10873;51.132;16.848;2023-03-12T15:03:25;32.10;45.80
21425;DHT22;10873;51.132;16.848;2023-03-12T15:05:52;31.90;45.50
21425;DHT22;10873;51.132;16.848;2023-03-12T15:08:19;31.70;45.50
21425;DHT22;10873;51.132;16.848;2023-03-12T15:10:47;31.40;44.80
21425;DHT22;10873;51.132;16.848;2023-03-12T15:13:16;31.20;43.70
21425;DHT22;10873;51.132;16.848;2023-03-12T15:15:45;31.00;42.80
21425;DHT22;10873;51.132;16.848;2023-03-12T15:18:16;30.70;40.40
21425;DHT22;10873;51.132;16.848;2023-03-12T15:20:43;30.50;40.40
21425;DHT22;10873;51.132;16.848;2023-03-12T15:23:11;30.30;40.40
21425;DHT22;10873;51.132;16.848;2023-03-12T15:25:38;30.20;40.30
21425;DHT22;10873;51.132;16.848;2023-03-12T15:28:07;30.00;40.30
21425;DHT22;10873;51.132;16.848;2023-03-12T15:30:35;29.90;40.20
21425;DHT22;10873;51.132;16.848;2023-03-12T15:33:04;29.70;40.00
21425;DHT22;10873;51.132;16.848;2023-03-12T15:35:31;29.60;39.90
21425;DHT22;10873;51.132;16.848;2023-03-12T15:37:57;29.40;39.60
21425;DHT22;10873;51.132;16.848;2023-03-12T15:40:26;29.30;39.70
21425;DHT22;10873;51.132;16.848;2023-03-12T15:42:52;29.20;39.70
21425;DHT22;10873;51.132;16.848;2023-03-12T15:45:25;29.10;39.40
21425;DHT22;10873;51.132;16.848;2023-03-12T15:47:55;28.90;39.30
21425;DHT22;10873;51.132;16.848;2023-03-12T15:50:22;28.80;39.40
21425;DHT22;10873;51.132;16.848;2023-03-12T15:53:03;28.70;39.40
21425;DHT22;10873;51.132;16.848;2023-03-12T15:55:31;28.50;39.20